sensor_id;sensor_type;location;lat;lon;timestamp;pressure;altitude;pressure_sealevel;temperature;humidity
21664;BME280;10993;52.510;13.456;2023-05-02T00:04:13;56500.06;;;-146.93;33.50
21664;BME280;10993;52.510;13.456;2023-05-02T00:09:14;56597.25;;;-146.93;34.05
21664;BME280;10993;52.510;13.456;2023-05-02T00:14:16;56591.16;;;-146.93;33.57
21664;BME280;10993;52.510;13.456;2023-05-02T00:19:16;56570.91;;;-146.93;33.59
21664;BME280;10993;52.510;13.456;2023-05-02T00:24:18;56621.53;;;-146.93;33.55
21664;BME280;10993;52.510;13.456;2023-05-02T00:29:19;56607.34;;;-146.93;33.61
21664;BME280;10993;52.510;13.456;2023-05-02T00:34:20;56568.88;;;-146.93;33.78
21664;BME280;10993;52.510;13.456;2023-05-02T00:39:20;56568.88;;;-146.93;33.96
21664;BME280;10993;52.510;13.456;2023-05-02T00:44:22;56548.66;;;-146.93;34.30
21664;BME280;10993;52.510;13.456;2023-05-02T00:49:23;56591.16;;;-146.93;34.27
21664;BME280;10993;52.510;13.456;2023-05-02T00:54:24;56572.94;;;-146.93;34.38
21664;BME280;10993;52.510;13.456;2023-05-02T00:59:26;56544.59;;;-146.93;34.55
21664;BME280;10993;52.510;13.456;2023-05-02T01:04:32;56589.13;;;-146.93;34.96
21664;BME280;10993;52.510;13.456;2023-05-02T01:09:41;56534.47;;;-146.93;35.44
21664;BME280;10993;52.510;13.456;2023-05-02T01:14:52;56585.09;;;-146.93;35.95
21664;BME280;10993;52.510;13.456;2023-05-02T01:19:57;56544.59;;;-146.93;36.55
21664;BME280;10993;52.510;13.456;2023-05-02T01:25:03;56491.94;;;-146.93;37.27
21664;BME280;10993;52.510;13.456;2023-05-02T01:30:10;56546.63;;;-146.93;37.74
21664;BME280;10993;52.510;13.456;2023-05-02T01:35:13;56544.59;;;-146.93;38.26
21664;BME280;10993;52.510;13.456;2023-05-02T01:40:17;56556.75;;;-146.93;38.70
21664;BME280;10993;52.510;13.456;2023-05-02T01:45:21;56566.88;;;-146.93;39.07
21664;BME280;10993;52.510;13.456;2023-05-02T01:50:23;56548.66;;;-146.93;39.10
21664;BME280;10993;52.510;13.456;2023-05-02T01:55:24;56554.72;;;-146.93;39.18
21664;BME280;10993;52.510;13.456;2023-05-02T02:00:31;56532.44;;;-146.93;39.75
21664;BME280;10993;52.510;13.456;2023-05-02T02:05:33;56653.94;;;-146.93;40.36
21664;BME280;10993;52.510;13.456;2023-05-02T02:10:36;56524.34;;;-146.93;40.68
21664;BME280;10993;52.510;13.456;2023-05-02T02:15:41;56435.25;;;-146.93;41.22
21664;BME280;10993;52.510;13.456;2023-05-02T02:20:45;56467.66;;;-146.93;41.22
21664;BME280;10993;52.510;13.456;2023-05-02T02:25:47;56550.66;;;-146.93;41.82
21664;BME280;10993;52.510;13.456;2023-05-02T02:30:49;56512.19;;;-146.93;42.44
21664;BME280;10993;52.510;13.456;2023-05-02T02:35:56;56581.03;;;-146.93;42.96
21664;BME280;10993;52.510;13.456;2023-05-02T02:41:05;56496.00;;;-146.93;44.37
21664;BME280;10993;52.510;13.456;2023-05-02T02:46:21;56481.84;;;-146.93;45.45
21664;BME280;10993;52.510;13.456;2023-05-02T02:51:30;56469.69;;;-146.93;45.83
21664;BME280;10993;52.510;13.456;2023-05-02T02:56:36;56479.81;;;-146.93;46.10
21664;BME280;10993;52.510;13.456;2023-05-02T03:01:42;56457.53;;;-146.93;46.50
21664;BME280;10993;52.510;13.456;2023-05-02T03:06:45;56475.75;;;-146.93;46.93
21664;BME280;10993;52.510;13.456;2023-05-02T03:11:46;56443.38;;;-146.93;47.67
21664;BME280;10993;52.510;13.456;2023-05-02T03:16:47;56419.06;;;-146.93;48.48
21664;BME280;10993;52.510;13.456;2023-05-02T03:21:49;56453.47;;;-146.93;48.71
21664;BME280;10993;52.510;13.456;2023-05-02T03:26:53;56374.53;;;-146.93;49.22
21664;BME280;10993;52.510;13.456;2023-05-02T03:31:55;56366.44;;;-146.93;49.86
21664;BME280;10993;52.510;13.456;2023-05-02T03:36:55;56400.84;;;-146.93;50.73
21664;BME280;10993;52.510;13.456;2023-05-02T03:41:55;56368.44;;;-146.93;50.57
21664;BME280;10993;52.510;13.456;2023-05-02T03:46:57;56374.53;;;-146.93;50.67
21664;BME280;10993;52.510;13.456;2023-05-02T03:51:57;56475.75;;;-146.93;50.23
21664;BME280;10993;52.510;13.456;2023-05-02T03:56:58;56415.03;;;-146.93;51.49
21664;BME280;10993;52.510;13.456;2023-05-02T04:01:59;56423.13;;;-146.93;51.63
21664;BME280;10993;52.510;13.456;2023-05-02T04:07:00;56425.13;;;-146.93;50.66
21664;BME280;10993;52.510;13.456;2023-05-02T04:12:00;56445.38;;;-146.93;50.39
21664;BME280;10993;52.510;13.456;2023-05-02T04:17:02;56508.16;;;-146.93;50.01
21664;BME280;10993;52.510;13.456;2023-05-02T04:22:03;56514.22;;;-146.93;48.85
21664;BME280;10993;52.510;13.456;2023-05-02T04:27:03;56564.84;;;-146.93;46.10
21664;BME280;10993;52.510;13.456;2023-05-02T04:32:05;56540.53;;;-146.93;46.62
21664;BME280;10993;52.510;13.456;2023-05-02T04:37:06;56556.75;;;-146.93;46.10
21664;BME280;10993;52.510;13.456;2023-05-02T04:42:06;56530.41;;;-146.93;44.92
21664;BME280;10993;52.510;13.456;2023-05-02T04:47:08;56637.72;;;-146.93;42.85
21664;BME280;10993;52.510;13.456;2023-05-02T04:52:09;56581.03;;;-146.93;41.75
21664;BME280;10993;52.510;13.456;2023-05-02T04:57:09;56815.91;;;-146.93;40.01
21664;BME280;10993;52.510;13.456;2023-05-02T05:02:11;56921.22;;;-146.93;37.17
21664;BME280;10993;52.510;13.456;2023-05-02T05:07:12;56941.44;;;-146.93;36.92
21664;BME280;10993;52.510;13.456;2023-05-02T05:12:12;57050.81;;;-146.93;35.39
21664;BME280;10993;52.510;13.456;2023-05-02T05:17:14;56842.22;;;-146.93;36.92
21664;BME280;10993;52.510;13.456;2023-05-02T05:22:14;56799.72;;;-146.93;37.22
21664;BME280;10993;52.510;13.456;2023-05-02T05:27:15;56947.53;;;-146.93;36.19
21664;BME280;10993;52.510;13.456;2023-05-02T05:32:17;56805.78;;;-146.93;37.11
21664;BME280;10993;52.510;13.456;2023-05-02T05:37:17;57062.94;;;-146.93;35.60
21664;BME280;10993;52.510;13.456;2023-05-02T05:42:18;57638.09;;;-146.93;31.79
21664;BME280;10993;52.510;13.456;2023-05-02T05:47:20;58320.72;;;-146.93;28.82
21664;BME280;10993;52.510;13.456;2023-05-02T05:52:23;57958.13;;;-146.93;29.54
21664;BME280;10993;52.510;13.456;2023-05-02T05:57:23;58695.50;;;-146.93;27.78
21664;BME280;10993;52.510;13.456;2023-05-02T06:02:25;59593.13;;;-146.93;25.58
21664;BME280;10993;52.510;13.456;2023-05-02T06:07:25;59605.28;;;-146.93;25.56
21664;BME280;10993;52.510;13.456;2023-05-02T06:12:26;59258.75;;;-146.93;25.82
21664;BME280;10993;52.510;13.456;2023-05-02T06:17:27;59777.53;;;-146.93;24.76
21664;BME280;10993;52.510;13.456;2023-05-02T06:22:27;59060.19;;;-146.93;25.60
21664;BME280;10993;52.510;13.456;2023-05-02T06:27:28;59254.69;;;-146.93;25.73
21664;BME280;10993;52.510;13.456;2023-05-02T06:32:30;61293.78;;;-146.93;24.60
21664;BME280;10993;52.510;13.456;2023-05-02T06:37:34;60440.28;;;-146.93;24.12
21664;BME280;10993;52.510;13.456;2023-05-02T06:42:34;59088.56;;;-146.93;26.35
21664;BME280;10993;52.510;13.456;2023-05-02T06:47:36;59785.63;;;-146.93;25.32
21664;BME280;10993;52.510;13.456;2023-05-02T06:52:36;60235.56;;;-146.93;24.73
21664;BME280;10993;52.510;13.456;2023-05-02T06:57:37;60089.63;;;-146.93;24.67
21664;BME280;10993;52.510;13.456;2023-05-02T07:02:38;58869.72;;;-146.93;26.69
21664;BME280;10993;52.510;13.456;2023-05-02T07:07:39;58768.44;;;-146.93;27.62
21664;BME280;10993;52.510;13.456;2023-05-02T07:12:39;58727.91;;;-146.93;27.74
21664;BME280;10993;52.510;13.456;2023-05-02T07:17:41;58677.25;;;-146.93;27.87
21664;BME280;10993;52.510;13.456;2023-05-02T07:22:41;58438.19;;;-146.93;28.56
21664;BME280;10993;52.510;13.456;2023-05-02T07:27:41;58037.13;;;-146.93;30.23
21664;BME280;10993;52.510;13.456;2023-05-02T07:32:43;57779.88;;;-146.93;31.39
21664;BME280;10993;52.510;13.456;2023-05-02T07:37:44;57994.56;;;-146.93;30.76
21664;BME280;10993;52.510;13.456;2023-05-02T07:42:44;57690.75;;;-146.93;31.96
21664;BME280;10993;52.510;13.456;2023-05-02T07:47:47;57508.47;;;-146.93;33.17
21664;BME280;10993;52.510;13.456;2023-05-02T07:52:47;57391.00;;;-146.93;34.15
21664;BME280;10993;52.510;13.456;2023-05-02T07:57:47;57143.94;;;-146.93;36.23
21664;BME280;10993;52.510;13.456;2023-05-02T08:02:49;57067.00;;;-146.93;38.23
21664;BME280;10993;52.510;13.456;2023-05-02T08:07:49;56866.53;;;-146.93;38.94
21664;BME280;10993;52.510;13.456;2023-05-02T08:12:50;56998.16;;;-146.93;39.60
21664;BME280;10993;52.510;13.456;2023-05-02T08:17:51;56990.06;;;-146.93;39.71
21664;BME280;10993;52.510;13.456;2023-05-02T08:22:52;57028.53;;;-146.93;39.94
21664;BME280;10993;52.510;13.456;2023-05-02T08:27:52;57119.66;;;-146.93;38.78
21664;BME280;10993;52.510;13.456;2023-05-02T08:32:54;57071.06;;;-146.93;39.21
21664;BME280;10993;52.510;13.456;2023-05-02T08:37:54;57024.47;;;-146.93;39.92
21664;BME280;10993;52.510;13.456;2023-05-02T08:42:55;57016.38;;;-146.93;40.06
21664;BME280;10993;52.510;13.456;2023-05-02T08:47:57;57036.63;;;-146.93;40.26
21664;BME280;10993;52.510;13.456;2023-05-02T08:52:59;57006.25;;;-146.93;41.14
21664;BME280;10993;52.510;13.456;2023-05-02T08:57:59;56981.94;;;-146.93;41.54
21664;BME280;10993;52.510;13.456;2023-05-02T09:03:06;56846.28;;;-146.93;42.73
21664;BME280;10993;52.510;13.456;2023-05-02T09:08:10;56925.25;;;-146.93;43.24
21664;BME280;10993;52.510;13.456;2023-05-02T09:13:27;56939.44;;;-146.93;43.00
21664;BME280;10993;52.510;13.456;2023-05-02T09:18:31;56747.06;;;-146.93;43.31
21664;BME280;10993;52.510;13.456;2023-05-02T09:23:33;56900.97;;;-146.93;43.27
21664;BME280;10993;52.510;13.456;2023-05-02T09:28:38;58488.84;;;-146.93;41.39
21664;BME280;10993;52.510;13.456;2023-05-02T09:33:40;57330.25;;;-146.93;38.65
21664;BME280;10993;52.510;13.456;2023-05-02T09:38:42;57123.69;;;-146.93;39.52
21664;BME280;10993;52.510;13.456;2023-05-02T09:43:42;56961.69;;;-146.93;41.31
21664;BME280;10993;52.510;13.456;2023-05-02T09:48:52;56953.59;;;-146.93;43.96
21664;BME280;10993;52.510;13.456;2023-05-02T09:53:53;56860.47;;;-146.93;45.36
21664;BME280;10993;52.510;13.456;2023-05-02T09:59:11;56911.09;;;-146.93;45.61
21664;BME280;10993;52.510;13.456;2023-05-02T10:04:15;56949.56;;;-146.93;44.66
21664;BME280;10993;52.510;13.456;2023-05-02T10:09:18;57046.75;;;-146.93;43.14
21664;BME280;10993;52.510;13.456;2023-05-02T10:14:19;57160.16;;;-146.93;40.90
21664;BME280;10993;52.510;13.456;2023-05-02T10:19:23;57188.50;;;-146.93;38.58
21664;BME280;10993;52.510;13.456;2023-05-02T10:24:27;57141.94;;;-146.93;39.92
21664;BME280;10993;52.510;13.456;2023-05-02T10:29:28;56892.84;;;-146.93;43.78
21664;BME280;10993;52.510;13.456;2023-05-02T10:34:31;56864.50;;;-146.93;48.44
21664;BME280;10993;52.510;13.456;2023-05-02T10:39:32;56884.75;;;-146.93;47.40
21664;BME280;10993;52.510;13.456;2023-05-02T10:44:33;57111.56;;;-146.93;43.49
21664;BME280;10993;52.510;13.456;2023-05-02T10:49:48;57178.38;;;-146.93;41.24
21664;BME280;10993;52.510;13.456;2023-05-02T10:54:49;57050.81;;;-146.93;41.53
21664;BME280;10993;52.510;13.456;2023-05-02T10:59:50;57129.78;;;-146.93;41.31
21664;BME280;10993;52.510;13.456;2023-05-02T11:05:02;57340.38;;;-146.93;41.76
21664;BME280;10993;52.510;13.456;2023-05-02T11:10:23;56846.28;;;-146.93;46.02
21664;BME280;10993;52.510;13.456;2023-05-02T11:15:55;56807.81;;;-146.93;46.61
21664;BME280;10993;52.510;13.456;2023-05-02T11:26:26;56858.44;;;-146.93;46.32
21664;BME280;10993;52.510;13.456;2023-05-02T11:32:01;57277.59;;;-146.93;42.92
21664;BME280;10993;52.510;13.456;2023-05-02T11:37:09;57103.44;;;-146.93;38.58
21664;BME280;10993;52.510;13.456;2023-05-02T11:42:26;56921.22;;;-146.93;39.16
21664;BME280;10993;52.510;13.456;2023-05-02T11:47:27;57010.31;;;-146.93;38.01
21664;BME280;10993;52.510;13.456;2023-05-02T11:52:28;56941.44;;;-146.93;38.17
21664;BME280;10993;52.510;13.456;2023-05-02T11:57:31;56951.59;;;-146.93;37.59
21664;BME280;10993;52.510;13.456;2023-05-02T12:02:35;56811.88;;;-146.93;36.48
21664;BME280;10993;52.510;13.456;2023-05-02T12:07:36;56892.84;;;-146.93;37.35
21664;BME280;10993;52.510;13.456;2023-05-02T12:12:40;56819.97;;;-146.93;36.74
21664;BME280;10993;52.510;13.456;2023-05-02T12:17:42;56850.34;;;-146.93;37.44
21664;BME280;10993;52.510;13.456;2023-05-02T12:22:43;56917.16;;;-146.93;36.28
21664;BME280;10993;52.510;13.456;2023-05-02T12:27:58;56909.06;;;-146.93;36.64
21664;BME280;10993;52.510;13.456;2023-05-02T12:33:00;56951.59;;;-146.93;35.85
21664;BME280;10993;52.510;13.456;2023-05-02T12:38:08;56783.50;;;-146.93;35.53
21664;BME280;10993;52.510;13.456;2023-05-02T12:43:10;56876.66;;;-146.93;36.44
21664;BME280;10993;52.510;13.456;2023-05-02T12:48:18;57366.72;;;-146.93;34.79
21664;BME280;10993;52.510;13.456;2023-05-02T12:53:38;57105.47;;;-146.93;33.53
21664;BME280;10993;52.510;13.456;2023-05-02T12:58:42;57139.91;;;-146.93;33.68
21664;BME280;10993;52.510;13.456;2023-05-02T13:03:43;57062.94;;;-146.93;34.06
21664;BME280;10993;52.510;13.456;2023-05-02T13:08:43;56917.16;;;-146.93;35.00
21664;BME280;10993;52.510;13.456;2023-05-02T13:13:45;56803.75;;;-146.93;35.91
21664;BME280;10993;52.510;13.456;2023-05-02T13:18:45;56779.47;;;-146.93;36.81
21664;BME280;10993;52.510;13.456;2023-05-02T13:23:46;56787.56;;;-146.93;36.52
21664;BME280;10993;52.510;13.456;2023-05-02T13:28:47;56767.31;;;-146.93;35.86
21664;BME280;10993;52.510;13.456;2023-05-02T13:33:48;56718.72;;;-146.93;35.75
21664;BME280;10993;52.510;13.456;2023-05-02T13:38:48;56751.13;;;-146.93;35.08
21664;BME280;10993;52.510;13.456;2023-05-02T13:43:50;56783.50;;;-146.93;35.46
21664;BME280;10993;52.510;13.456;2023-05-02T13:48:50;56805.78;;;-146.93;35.02
21664;BME280;10993;52.510;13.456;2023-05-02T13:53:51;56728.84;;;-146.93;35.52
21664;BME280;10993;52.510;13.456;2023-05-02T13:58:52;56734.91;;;-146.93;34.57
21664;BME280;10993;52.510;13.456;2023-05-02T14:03:53;56795.66;;;-146.93;35.05
21664;BME280;10993;52.510;13.456;2023-05-02T14:08:53;56795.66;;;-146.93;34.53
21664;BME280;10993;52.510;13.456;2023-05-02T14:13:55;56570.91;;;-146.93;34.95
21664;BME280;10993;52.510;13.456;2023-05-02T14:18:57;56736.94;;;-146.93;34.16
21664;BME280;10993;52.510;13.456;2023-05-02T14:23:58;56722.78;;;-146.93;34.98
21664;BME280;10993;52.510;13.456;2023-05-02T14:29:00;56668.09;;;-146.93;35.46
21664;BME280;10993;52.510;13.456;2023-05-02T14:34:01;56708.59;;;-146.93;35.42
21664;BME280;10993;52.510;13.456;2023-05-02T14:39:01;56593.19;;;-146.93;35.77
21664;BME280;10993;52.510;13.456;2023-05-02T14:44:03;56651.91;;;-146.93;35.69
21664;BME280;10993;52.510;13.456;2023-05-02T14:49:03;56645.81;;;-146.93;36.03
21664;BME280;10993;52.510;13.456;2023-05-02T14:54:04;56678.22;;;-146.93;35.39
21664;BME280;10993;52.510;13.456;2023-05-02T14:59:07;56321.88;;;-146.93;34.99
21664;BME280;10993;52.510;13.456;2023-05-02T15:04:07;56637.72;;;-146.93;35.50
21664;BME280;10993;52.510;13.456;2023-05-02T15:09:07;56540.53;;;-146.93;36.24
21664;BME280;10993;52.510;13.456;2023-05-02T15:14:09;56589.13;;;-146.93;36.14
21664;BME280;10993;52.510;13.456;2023-05-02T15:19:09;56621.53;;;-146.93;35.73
21664;BME280;10993;52.510;13.456;2023-05-02T15:24:10;56552.69;;;-146.93;36.42
21664;BME280;10993;52.510;13.456;2023-05-02T15:29:11;56552.69;;;-146.93;37.20
21664;BME280;10993;52.510;13.456;2023-05-02T15:34:12;56512.19;;;-146.93;36.87
21664;BME280;10993;52.510;13.456;2023-05-02T15:39:12;56512.19;;;-146.93;36.57
21664;BME280;10993;52.510;13.456;2023-05-02T15:44:14;56581.03;;;-146.93;35.44
21664;BME280;10993;52.510;13.456;2023-05-02T15:49:14;56556.75;;;-146.93;35.74
21664;BME280;10993;52.510;13.456;2023-05-02T15:54:15;57670.50;;;-146.93;36.04
21664;BME280;10993;52.510;13.456;2023-05-02T15:59:16;56479.81;;;-146.93;36.20
21664;BME280;10993;52.510;13.456;2023-05-02T16:04:17;56461.59;;;-146.93;36.47
21664;BME280;10993;52.510;13.456;2023-05-02T16:09:17;56483.84;;;-146.93;36.81
21664;BME280;10993;52.510;13.456;2023-05-02T16:14:19;56506.13;;;-146.93;36.61
21664;BME280;10993;52.510;13.456;2023-05-02T16:19:23;56419.06;;;-146.93;37.03
21664;BME280;10993;52.510;13.456;2023-05-02T16:24:23;56342.13;;;-146.93;36.42
21664;BME280;10993;52.510;13.456;2023-05-02T16:29:25;56516.25;;;-146.93;36.95
21664;BME280;10993;52.510;13.456;2023-05-02T16:34:25;56483.84;;;-146.93;36.79
21664;BME280;10993;52.510;13.456;2023-05-02T16:39:26;56504.09;;;-146.93;36.65
21664;BME280;10993;52.510;13.456;2023-05-02T16:44:28;56500.06;;;-146.93;36.41
21664;BME280;10993;52.510;13.456;2023-05-02T16:49:29;56491.94;;;-146.93;36.68
21664;BME280;10993;52.510;13.456;2023-05-02T16:54:29;56528.41;;;-146.93;36.61
21664;BME280;10993;52.510;13.456;2023-05-02T16:59:31;56463.59;;;-146.93;36.48
21664;BME280;10993;52.510;13.456;2023-05-02T17:04:31;56354.28;;;-146.93;37.01
21664;BME280;10993;52.510;13.456;2023-05-02T17:09:32;56390.72;;;-146.93;36.87
21664;BME280;10993;52.510;13.456;2023-05-02T17:14:34;56451.47;;;-146.93;36.70
21664;BME280;10993;52.510;13.456;2023-05-02T17:19:34;56522.31;;;-146.93;35.98
21664;BME280;10993;52.510;13.456;2023-05-02T17:24:35;56496.00;;;-146.93;36.15
21664;BME280;10993;52.510;13.456;2023-05-02T17:29:37;56471.72;;;-146.93;36.63
21664;BME280;10993;52.510;13.456;2023-05-02T17:34:38;56483.84;;;-146.93;35.94
21664;BME280;10993;52.510;13.456;2023-05-02T17:39:38;56520.28;;;-146.93;35.69
21664;BME280;10993;52.510;13.456;2023-05-02T17:44:40;56159.94;;;-146.93;35.73
21664;BME280;10993;52.510;13.456;2023-05-02T17:49:40;56461.59;;;-146.93;35.88
21664;BME280;10993;52.510;13.456;2023-05-02T17:54:41;56447.41;;;-146.93;36.66
21664;BME280;10993;52.510;13.456;2023-05-02T17:59:43;56475.75;;;-146.93;37.09
21664;BME280;10993;52.510;13.456;2023-05-02T18:04:43;56453.47;;;-146.93;36.83
21664;BME280;10993;52.510;13.456;2023-05-02T18:09:45;56487.91;;;-146.93;36.47
21664;BME280;10993;52.510;13.456;2023-05-02T18:14:46;56463.59;;;-146.93;36.35
21664;BME280;10993;52.510;13.456;2023-05-02T18:19:48;56319.84;;;-146.93;36.46
21664;BME280;10993;52.510;13.456;2023-05-02T18:24:49;56487.91;;;-146.93;36.48
21664;BME280;10993;52.510;13.456;2023-05-02T18:29:51;56417.03;;;-146.93;36.16
21664;BME280;10993;52.510;13.456;2023-05-02T18:34:51;56469.69;;;-146.93;35.90
21664;BME280;10993;52.510;13.456;2023-05-02T18:39:51;56429.19;;;-146.93;36.06
21664;BME280;10993;52.510;13.456;2023-05-02T18:44:54;56374.53;;;-146.93;35.71
21664;BME280;10993;52.510;13.456;2023-05-02T18:49:55;56441.34;;;-146.93;35.39
21664;BME280;10993;52.510;13.456;2023-05-02T18:54:57;56449.44;;;-146.93;35.52
21664;BME280;10993;52.510;13.456;2023-05-02T18:59:59;56402.88;;;-146.93;35.85
21664;BME280;10993;52.510;13.456;2023-05-02T19:04:59;56487.91;;;-146.93;36.00
21664;BME280;10993;52.510;13.456;2023-05-02T19:10:00;56329.97;;;-146.93;35.68
21664;BME280;10993;52.510;13.456;2023-05-02T19:15:02;56346.19;;;-146.93;35.67
21664;BME280;10993;52.510;13.456;2023-05-02T19:20:05;56471.72;;;-146.93;35.17
21664;BME280;10993;52.510;13.456;2023-05-02T19:25:06;56447.41;;;-146.93;35.55
21664;BME280;10993;52.510;13.456;2023-05-02T19:30:10;56465.63;;;-146.93;35.37
21664;BME280;10993;52.510;13.456;2023-05-02T19:35:14;56370.47;;;-146.93;35.49
21664;BME280;10993;52.510;13.456;2023-05-02T19:40:14;56449.44;;;-146.93;35.73
21664;BME280;10993;52.510;13.456;2023-05-02T19:45:17;56400.84;;;-146.93;35.88
21664;BME280;10993;52.510;13.456;2023-05-02T19:50:17;56447.41;;;-146.93;35.89
21664;BME280;10993;52.510;13.456;2023-05-02T19:55:18;56435.25;;;-146.93;36.09
21664;BME280;10993;52.510;13.456;2023-05-02T20:00:21;56451.47;;;-146.93;36.48
21664;BME280;10993;52.510;13.456;2023-05-02T20:05:22;56471.72;;;-146.93;36.88
21664;BME280;10993;52.510;13.456;2023-05-02T20:10:22;56350.22;;;-146.93;37.57
21664;BME280;10993;52.510;13.456;2023-05-02T20:15:24;56433.25;;;-146.93;37.63
21664;BME280;10993;52.510;13.456;2023-05-02T20:20:24;56443.38;;;-146.93;37.49
21664;BME280;10993;52.510;13.456;2023-05-02T20:25:25;56327.97;;;-146.93;37.79
21664;BME280;10993;52.510;13.456;2023-05-02T20:30:27;56332.00;;;-146.93;38.03
21664;BME280;10993;52.510;13.456;2023-05-02T20:35:27;56429.19;;;-146.93;38.27
21664;BME280;10993;52.510;13.456;2023-05-02T20:40:29;56451.47;;;-146.93;38.74
21664;BME280;10993;52.510;13.456;2023-05-02T20:45:34;56415.03;;;-146.93;38.81
21664;BME280;10993;52.510;13.456;2023-05-02T20:50:34;56406.91;;;-146.93;39.36
21664;BME280;10993;52.510;13.456;2023-05-02T20:55:35;56386.66;;;-146.93;39.44
21664;BME280;10993;52.510;13.456;2023-05-02T21:00:37;56354.28;;;-146.93;39.62
21664;BME280;10993;52.510;13.456;2023-05-02T21:05:37;56390.72;;;-146.93;40.27
21664;BME280;10993;52.510;13.456;2023-05-02T21:10:37;56386.66;;;-146.93;40.31
21664;BME280;10993;52.510;13.456;2023-05-02T21:15:39;56398.81;;;-146.93;40.58
21664;BME280;10993;52.510;13.456;2023-05-02T21:20:40;56410.97;;;-146.93;41.13
21664;BME280;10993;52.510;13.456;2023-05-02T21:25:40;56218.63;;;-146.93;40.97
21664;BME280;10993;52.510;13.456;2023-05-02T21:30:42;56402.88;;;-146.93;41.42
21664;BME280;10993;52.510;13.456;2023-05-02T21:35:42;56386.66;;;-146.93;41.57
21664;BME280;10993;52.510;13.456;2023-05-02T21:40:43;56275.31;;;-146.93;41.40
21664;BME280;10993;52.510;13.456;2023-05-02T21:45:45;56376.56;;;-146.93;41.07
21664;BME280;10993;52.510;13.456;2023-05-02T21:50:45;56350.22;;;-146.93;41.46
21664;BME280;10993;52.510;13.456;2023-05-02T21:55:46;56398.81;;;-146.93;41.38
21664;BME280;10993;52.510;13.456;2023-05-02T22:00:47;56358.31;;;-146.93;41.04
21664;BME280;10993;52.510;13.456;2023-05-02T22:05:48;56372.50;;;-146.93;41.30
21664;BME280;10993;52.510;13.456;2023-05-02T22:10:49;56244.94;;;-146.93;41.23
21664;BME280;10993;52.510;13.456;2023-05-02T22:15:50;56323.91;;;-146.93;40.92
21664;BME280;10993;52.510;13.456;2023-05-02T22:20:51;56390.72;;;-146.93;41.20
21664;BME280;10993;52.510;13.456;2023-05-02T22:25:51;56344.16;;;-146.93;40.66
21664;BME280;10993;52.510;13.456;2023-05-02T22:30:53;56273.28;;;-146.93;40.79
21664;BME280;10993;52.510;13.456;2023-05-02T22:35:54;56421.09;;;-146.93;40.96
21664;BME280;10993;52.510;13.456;2023-05-02T22:40:56;56441.34;;;-146.93;40.84
21664;BME280;10993;52.510;13.456;2023-05-02T22:45:57;56404.91;;;-146.93;40.95
21664;BME280;10993;52.510;13.456;2023-05-02T22:50:58;56366.44;;;-146.93;40.83
21664;BME280;10993;52.510;13.456;2023-05-02T22:55:58;56340.09;;;-146.93;40.67
21664;BME280;10993;52.510;13.456;2023-05-02T23:01:00;56271.28;;;-146.93;40.43
21664;BME280;10993;52.510;13.456;2023-05-02T23:06:00;56378.56;;;-146.93;40.56
21664;BME280;10993;52.510;13.456;2023-05-02T23:11:00;56378.56;;;-146.93;40.20
21664;BME280;10993;52.510;13.456;2023-05-02T23:16:02;56404.91;;;-146.93;39.86
21664;BME280;10993;52.510;13.456;2023-05-02T23:21:03;56384.66;;;-146.93;39.69
21664;BME280;10993;52.510;13.456;2023-05-02T23:26:05;56374.53;;;-146.93;39.76
21664;BME280;10993;52.510;13.456;2023-05-02T23:31:07;56348.22;;;-146.93;40.11
21664;BME280;10993;52.510;13.456;2023-05-02T23:36:08;56364.41;;;-146.93;40.00
21664;BME280;10993;52.510;13.456;2023-05-02T23:41:09;56382.63;;;-146.93;40.07
21664;BME280;10993;52.510;13.456;2023-05-02T23:46:10;56410.97;;;-146.93;39.53
21664;BME280;10993;52.510;13.456;2023-05-02T23:51:11;56346.19;;;-146.93;39.63
21664;BME280;10993;52.510;13.456;2023-05-02T23:56:11;56386.66;;;-146.93;39.55
